sensor_id;sensor_type;location;lat;lon;timestamp;P1;durP1;ratioP1;P2;durP2;ratioP2
9823;SDS011;4951;50.778;7.196;2023-06-24T00:01:35;8.20;;;7.40;;
9823;SDS011;4951;50.778;7.196;2023-06-24T00:04:07;7.03;;;6.33;;
9823;SDS011;4951;50.778;7.196;2023-06-24T00:06:45;7.40;;;6.70;;
9823;SDS011;4951;50.778;7.196;2023-06-24T00:09:25;7.10;;;6.50;;
9823;SDS011;4951;50.778;7.196;2023-06-24T00:11:53;7.00;;;6.30;;
9823;SDS011;4951;50.778;7.196;2023-06-24T00:14:46;6.37;;;5.87;;
9823;SDS011;4951;50.778;7.196;2023-06-24T00:17:14;7.77;;;5.97;;
9823;SDS011;4951;50.778;7.196;2023-06-24T00:19:45;6.40;;;5.80;;
9823;SDS011;4951;50.778;7.196;2023-06-24T00:22:13;6.70;;;6.10;;
9823;SDS011;4951;50.778;7.196;2023-06-24T00:24:41;8.23;;;6.80;;
9823;SDS011;4951;50.778;7.196;2023-06-24T00:27:09;7.33;;;6.63;;
9823;SDS011;4951;50.778;7.196;2023-06-24T00:29:39;7.37;;;6.53;;
9823;SDS011;4951;50.778;7.196;2023-06-24T00:32:24;7.97;;;6.80;;
9823;SDS011;4951;50.778;7.196;2023-06-24T00:34:56;7.13;;;6.43;;
9823;SDS011;4951;50.778;7.196;2023-06-24T00:37:29;7.50;;;6.90;;
9823;SDS011;4951;50.778;7.196;2023-06-24T00:40:08;7.90;;;7.10;;
9823;SDS011;4951;50.778;7.196;2023-06-24T00:42:44;7.30;;;6.60;;
9823;SDS011;4951;50.778;7.196;2023-06-24T00:45:14;9.73;;;6.40;;
9823;SDS011;4951;50.778;7.196;2023-06-24T00:47:43;7.20;;;6.50;;
9823;SDS011;4951;50.778;7.196;2023-06-24T00:50:12;8.10;;;7.30;;
9823;SDS011;4951;50.778;7.196;2023-06-24T00:52:40;8.77;;;7.80;;
9823;SDS011;4951;50.778;7.196;2023-06-24T00:55:08;8.10;;;7.27;;
9823;SDS011;4951;50.778;7.196;2023-06-24T01:00:31;7.67;;;6.97;;
9823;SDS011;4951;50.778;7.196;2023-06-24T01:03:04;7.63;;;6.93;;
9823;SDS011;4951;50.778;7.196;2023-06-24T01:05:33;7.30;;;6.60;;
9823;SDS011;4951;50.778;7.196;2023-06-24T01:08:28;8.03;;;7.33;;
9823;SDS011;4951;50.778;7.196;2023-06-24T01:10:58;8.63;;;7.83;;
9823;SDS011;4951;50.778;7.196;2023-06-24T01:13:28;7.50;;;6.80;;
9823;SDS011;4951;50.778;7.196;2023-06-24T01:18:48;8.27;;;7.47;;
9823;SDS011;4951;50.778;7.196;2023-06-24T01:21:33;8.30;;;7.03;;
9823;SDS011;4951;50.778;7.196;2023-06-24T01:24:30;7.20;;;6.60;;
9823;SDS011;4951;50.778;7.196;2023-06-24T01:27:56;7.77;;;7.03;;
9823;SDS011;4951;50.778;7.196;2023-06-24T01:31:02;8.50;;;7.70;;
9823;SDS011;4951;50.778;7.196;2023-06-24T01:34:08;7.50;;;6.80;;
9823;SDS011;4951;50.778;7.196;2023-06-24T01:37:12;8.17;;;7.00;;
9823;SDS011;4951;50.778;7.196;2023-06-24T01:39:50;7.77;;;7.07;;
9823;SDS011;4951;50.778;7.196;2023-06-24T01:42:33;11.20;;;7.73;;
9823;SDS011;4951;50.778;7.196;2023-06-24T01:45:23;8.27;;;7.47;;
9823;SDS011;4951;50.778;7.196;2023-06-24T01:47:55;9.33;;;7.83;;
9823;SDS011;4951;50.778;7.196;2023-06-24T01:50:29;7.83;;;7.13;;
9823;SDS011;4951;50.778;7.196;2023-06-24T01:53:01;7.63;;;6.93;;
9823;SDS011;4951;50.778;7.196;2023-06-24T01:55:59;8.70;;;7.33;;
9823;SDS011;4951;50.778;7.196;2023-06-24T01:58:27;8.10;;;7.30;;
9823;SDS011;4951;50.778;7.196;2023-06-24T02:00:58;8.87;;;7.97;;
9823;SDS011;4951;50.778;7.196;2023-06-24T02:03:30;10.73;;;6.90;;
9823;SDS011;4951;50.778;7.196;2023-06-24T02:06:08;10.40;;;6.83;;
9823;SDS011;4951;50.778;7.196;2023-06-24T02:08:37;7.73;;;6.93;;
9823;SDS011;4951;50.778;7.196;2023-06-24T02:11:12;9.97;;;7.43;;
9823;SDS011;4951;50.778;7.196;2023-06-24T02:14:01;12.43;;;7.23;;
9823;SDS011;4951;50.778;7.196;2023-06-24T02:17:06;7.67;;;6.87;;
9823;SDS011;4951;50.778;7.196;2023-06-24T02:19:57;8.27;;;6.53;;
9823;SDS011;4951;50.778;7.196;2023-06-24T02:22:26;9.17;;;7.43;;
9823;SDS011;4951;50.778;7.196;2023-06-24T02:24:54;7.17;;;6.47;;
9823;SDS011;4951;50.778;7.196;2023-06-24T02:27:23;8.37;;;7.67;;
9823;SDS011;4951;50.778;7.196;2023-06-24T02:29:51;7.60;;;6.40;;
9823;SDS011;4951;50.778;7.196;2023-06-24T02:32:19;8.37;;;7.53;;
9823;SDS011;4951;50.778;7.196;2023-06-24T02:34:46;8.67;;;7.70;;
9823;SDS011;4951;50.778;7.196;2023-06-24T02:37:16;9.40;;;7.80;;
9823;SDS011;4951;50.778;7.196;2023-06-24T02:40:06;8.53;;;7.50;;
9823;SDS011;4951;50.778;7.196;2023-06-24T02:43:09;10.17;;;8.10;;
9823;SDS011;4951;50.778;7.196;2023-06-24T02:48:55;8.93;;;7.97;;
9823;SDS011;4951;50.778;7.196;2023-06-24T02:51:59;8.97;;;8.07;;
9823;SDS011;4951;50.778;7.196;2023-06-24T02:54:35;8.23;;;7.43;;
9823;SDS011;4951;50.778;7.196;2023-06-24T02:57:45;8.43;;;7.20;;
9823;SDS011;4951;50.778;7.196;2023-06-24T03:00:25;9.17;;;8.27;;
9823;SDS011;4951;50.778;7.196;2023-06-24T03:03:07;8.60;;;7.70;;
9823;SDS011;4951;50.778;7.196;2023-06-24T03:08:46;8.87;;;7.60;;
9823;SDS011;4951;50.778;7.196;2023-06-24T03:14:57;9.83;;;8.03;;
9823;SDS011;4951;50.778;7.196;2023-06-24T03:17:46;9.57;;;8.67;;
9823;SDS011;4951;50.778;7.196;2023-06-24T03:20:58;9.07;;;8.17;;
9823;SDS011;4951;50.778;7.196;2023-06-24T03:23:51;8.97;;;7.93;;
9823;SDS011;4951;50.778;7.196;2023-06-24T03:26:23;8.07;;;7.37;;
9823;SDS011;4951;50.778;7.196;2023-06-24T03:29:34;11.57;;;8.23;;
9823;SDS011;4951;50.778;7.196;2023-06-24T03:35:23;8.97;;;7.20;;
9823;SDS011;4951;50.778;7.196;2023-06-24T03:38:36;8.93;;;7.47;;
9823;SDS011;4951;50.778;7.196;2023-06-24T03:42:47;9.77;;;7.53;;
9823;SDS011;4951;50.778;7.196;2023-06-24T03:47:47;10.73;;;8.20;;
9823;SDS011;4951;50.778;7.196;2023-06-24T03:50:27;10.00;;;7.20;;
9823;SDS011;4951;50.778;7.196;2023-06-24T03:53:26;9.00;;;7.67;;
9823;SDS011;4951;50.778;7.196;2023-06-24T03:56:36;12.87;;;8.00;;
9823;SDS011;4951;50.778;7.196;2023-06-24T03:59:10;8.97;;;7.50;;
9823;SDS011;4951;50.778;7.196;2023-06-24T04:02:14;9.17;;;8.27;;
9823;SDS011;4951;50.778;7.196;2023-06-24T04:04:46;9.30;;;8.13;;
9823;SDS011;4951;50.778;7.196;2023-06-24T04:07:15;11.80;;;8.33;;
9823;SDS011;4951;50.778;7.196;2023-06-24T04:09:56;8.97;;;8.17;;
9823;SDS011;4951;50.778;7.196;2023-06-24T04:12:26;9.90;;;8.90;;
9823;SDS011;4951;50.778;7.196;2023-06-24T04:14:53;9.77;;;7.63;;
9823;SDS011;4951;50.778;7.196;2023-06-24T04:17:23;10.57;;;7.60;;
9823;SDS011;4951;50.778;7.196;2023-06-24T04:21:01;9.03;;;8.23;;
9823;SDS011;4951;50.778;7.196;2023-06-24T04:23:36;8.40;;;7.70;;
9823;SDS011;4951;50.778;7.196;2023-06-24T04:26:33;9.77;;;8.50;;
9823;SDS011;4951;50.778;7.196;2023-06-24T04:29:02;10.37;;;9.20;;
9823;SDS011;4951;50.778;7.196;2023-06-24T04:31:44;11.57;;;8.27;;
9823;SDS011;4951;50.778;7.196;2023-06-24T04:34:11;9.10;;;8.30;;
9823;SDS011;4951;50.778;7.196;2023-06-24T04:36:45;8.77;;;7.67;;
9823;SDS011;4951;50.778;7.196;2023-06-24T04:42:34;9.27;;;8.37;;
9823;SDS011;4951;50.778;7.196;2023-06-24T04:45:04;11.10;;;7.53;;
9823;SDS011;4951;50.778;7.196;2023-06-24T04:47:37;8.67;;;7.77;;
9823;SDS011;4951;50.778;7.196;2023-06-24T04:50:32;10.50;;;8.00;;
9823;SDS011;4951;50.778;7.196;2023-06-24T04:53:07;8.60;;;7.70;;
9823;SDS011;4951;50.778;7.196;2023-06-24T04:55:37;7.57;;;6.87;;
9823;SDS011;4951;50.778;7.196;2023-06-24T04:58:04;8.47;;;7.57;;
9823;SDS011;4951;50.778;7.196;2023-06-24T05:00:41;7.97;;;7.23;;
9823;SDS011;4951;50.778;7.196;2023-06-24T05:03:10;8.50;;;7.43;;
9823;SDS011;4951;50.778;7.196;2023-06-24T05:05:37;7.90;;;7.10;;
9823;SDS011;4951;50.778;7.196;2023-06-24T05:08:08;9.53;;;8.47;;
9823;SDS011;4951;50.778;7.196;2023-06-24T05:16:47;8.20;;;7.40;;
9823;SDS011;4951;50.778;7.196;2023-06-24T05:19:14;9.13;;;7.40;;
9823;SDS011;4951;50.778;7.196;2023-06-24T05:21:41;11.93;;;7.30;;
9823;SDS011;4951;50.778;7.196;2023-06-24T05:24:32;7.53;;;6.73;;
9823;SDS011;4951;50.778;7.196;2023-06-24T05:30:32;7.43;;;6.60;;
9823;SDS011;4951;50.778;7.196;2023-06-24T05:33:13;7.60;;;6.77;;
9823;SDS011;4951;50.778;7.196;2023-06-24T05:35:40;9.50;;;7.63;;
9823;SDS011;4951;50.778;7.196;2023-06-24T05:38:09;9.67;;;7.50;;
9823;SDS011;4951;50.778;7.196;2023-06-24T05:40:37;10.93;;;7.00;;
9823;SDS011;4951;50.778;7.196;2023-06-24T05:43:04;7.50;;;6.80;;
9823;SDS011;4951;50.778;7.196;2023-06-24T05:48:39;7.90;;;7.07;;
9823;SDS011;4951;50.778;7.196;2023-06-24T05:51:38;7.90;;;6.93;;
9823;SDS011;4951;50.778;7.196;2023-06-24T05:54:16;7.10;;;6.40;;
9823;SDS011;4951;50.778;7.196;2023-06-24T05:56:43;9.47;;;7.10;;
9823;SDS011;4951;50.778;7.196;2023-06-24T05:59:26;6.53;;;5.90;;
9823;SDS011;4951;50.778;7.196;2023-06-24T06:02:26;9.53;;;6.97;;
9823;SDS011;4951;50.778;7.196;2023-06-24T06:04:53;7.27;;;6.57;;
9823;SDS011;4951;50.778;7.196;2023-06-24T06:07:41;7.67;;;6.97;;
9823;SDS011;4951;50.778;7.196;2023-06-24T06:10:16;7.90;;;6.60;;
9823;SDS011;4951;50.778;7.196;2023-06-24T06:13:24;8.07;;;7.27;;
9823;SDS011;4951;50.778;7.196;2023-06-24T06:16:14;9.43;;;7.27;;
9823;SDS011;4951;50.778;7.196;2023-06-24T06:19:24;8.00;;;7.20;;
9823;SDS011;4951;50.778;7.196;2023-06-24T06:22:06;10.73;;;7.78;;
9823;SDS011;4951;50.778;7.196;2023-06-24T06:24:43;8.40;;;7.60;;
9823;SDS011;4951;50.778;7.196;2023-06-24T06:27:58;7.97;;;7.10;;
9823;SDS011;4951;50.778;7.196;2023-06-24T06:30:29;7.70;;;7.10;;
9823;SDS011;4951;50.778;7.196;2023-06-24T06:33:06;9.23;;;7.68;;
9823;SDS011;4951;50.778;7.196;2023-06-24T06:35:50;7.90;;;7.13;;
9823;SDS011;4951;50.778;7.196;2023-06-24T06:38:26;7.53;;;6.85;;
9823;SDS011;4951;50.778;7.196;2023-06-24T06:40:55;9.00;;;7.32;;
9823;SDS011;4951;50.778;7.196;2023-06-24T06:43:22;8.15;;;7.35;;
9823;SDS011;4951;50.778;7.196;2023-06-24T06:45:50;8.55;;;7.35;;
9823;SDS011;4951;50.778;7.196;2023-06-24T06:48:17;7.03;;;6.43;;
9823;SDS011;4951;50.778;7.196;2023-06-24T06:50:44;6.97;;;6.28;;
9823;SDS011;4951;50.778;7.196;2023-06-24T06:53:23;8.45;;;6.90;;
9823;SDS011;4951;50.778;7.196;2023-06-24T06:55:57;9.77;;;7.18;;
9823;SDS011;4951;50.778;7.196;2023-06-24T06:58:24;7.80;;;6.80;;
9823;SDS011;4951;50.778;7.196;2023-06-24T07:00:54;12.30;;;6.65;;
9823;SDS011;4951;50.778;7.196;2023-06-24T07:03:26;9.35;;;6.95;;
9823;SDS011;4951;50.778;7.196;2023-06-24T07:05:57;8.68;;;7.78;;
9823;SDS011;4951;50.778;7.196;2023-06-24T07:08:26;9.32;;;7.38;;
9823;SDS011;4951;50.778;7.196;2023-06-24T07:11:01;8.60;;;7.78;;
9823;SDS011;4951;50.778;7.196;2023-06-24T07:13:28;8.48;;;7.57;;
9823;SDS011;4951;50.778;7.196;2023-06-24T07:15:56;10.60;;;7.32;;
9823;SDS011;4951;50.778;7.196;2023-06-24T07:18:24;9.85;;;7.93;;
9823;SDS011;4951;50.778;7.196;2023-06-24T07:20:55;8.73;;;7.82;;
9823;SDS011;4951;50.778;7.196;2023-06-24T07:26:51;9.05;;;8.02;;
9823;SDS011;4951;50.778;7.196;2023-06-24T07:32:31;9.98;;;8.55;;
9823;SDS011;4951;50.778;7.196;2023-06-24T07:38:02;8.50;;;7.15;;
9823;SDS011;4951;50.778;7.196;2023-06-24T07:43:16;10.38;;;7.22;;
9823;SDS011;4951;50.778;7.196;2023-06-24T07:45:43;9.85;;;7.40;;
9823;SDS011;4951;50.778;7.196;2023-06-24T07:48:28;8.85;;;8.00;;
9823;SDS011;4951;50.778;7.196;2023-06-24T07:50:55;9.05;;;7.80;;
9823;SDS011;4951;50.778;7.196;2023-06-24T07:53:52;8.63;;;7.82;;
9823;SDS011;4951;50.778;7.196;2023-06-24T08:02:46;10.95;;;8.68;;
9823;SDS011;4951;50.778;7.196;2023-06-24T08:05:34;8.60;;;7.80;;
9823;SDS011;4951;50.778;7.196;2023-06-24T08:08:05;9.15;;;7.95;;
9823;SDS011;4951;50.778;7.196;2023-06-24T08:10:33;14.98;;;10.27;;
9823;SDS011;4951;50.778;7.196;2023-06-24T08:13:18;11.63;;;9.90;;
9823;SDS011;4951;50.778;7.196;2023-06-24T08:15:53;14.13;;;9.88;;
9823;SDS011;4951;50.778;7.196;2023-06-24T08:18:26;11.32;;;9.90;;
9823;SDS011;4951;50.778;7.196;2023-06-24T08:24:40;11.85;;;8.82;;
9823;SDS011;4951;50.778;7.196;2023-06-24T08:27:33;10.93;;;9.63;;
9823;SDS011;4951;50.778;7.196;2023-06-24T08:33:44;10.55;;;8.55;;
9823;SDS011;4951;50.778;7.196;2023-06-24T08:37:04;12.02;;;10.18;;
9823;SDS011;4951;50.778;7.196;2023-06-24T08:48:26;9.75;;;8.75;;
9823;SDS011;4951;50.778;7.196;2023-06-24T08:55:36;10.32;;;9.18;;
9823;SDS011;4951;50.778;7.196;2023-06-24T09:02:48;8.63;;;7.88;;
9823;SDS011;4951;50.778;7.196;2023-06-24T09:09:56;10.48;;;7.70;;
9823;SDS011;4951;50.778;7.196;2023-06-24T09:12:47;10.02;;;7.10;;
9823;SDS011;4951;50.778;7.196;2023-06-24T09:22:30;7.82;;;7.03;;
9823;SDS011;4951;50.778;7.196;2023-06-24T09:25:40;9.55;;;8.30;;
9823;SDS011;4951;50.778;7.196;2023-06-24T09:28:46;8.13;;;7.32;;
9823;SDS011;4951;50.778;7.196;2023-06-24T09:56:35;6.38;;;5.72;;
9823;SDS011;4951;50.778;7.196;2023-06-24T09:59:58;8.02;;;5.43;;
9823;SDS011;4951;50.778;7.196;2023-06-24T10:02:59;6.38;;;5.65;;
9823;SDS011;4951;50.778;7.196;2023-06-24T10:08:54;6.15;;;5.55;;
9823;SDS011;4951;50.778;7.196;2023-06-24T10:11:10;6.40;;;5.78;;
9823;SDS011;4951;50.778;7.196;2023-06-24T10:13:40;6.80;;;5.90;;
9823;SDS011;4951;50.778;7.196;2023-06-24T10:16:18;7.22;;;5.65;;
9823;SDS011;4951;50.778;7.196;2023-06-24T10:20:04;7.60;;;6.63;;
9823;SDS011;4951;50.778;7.196;2023-06-24T10:23:11;8.10;;;5.68;;
9823;SDS011;4951;50.778;7.196;2023-06-24T10:26:24;6.28;;;5.35;;
9823;SDS011;4951;50.778;7.196;2023-06-24T10:29:51;8.70;;;5.45;;
9823;SDS011;4951;50.778;7.196;2023-06-24T10:33:09;7.72;;;5.97;;
9823;SDS011;4951;50.778;7.196;2023-06-24T10:35:48;8.77;;;6.30;;
9823;SDS011;4951;50.778;7.196;2023-06-24T10:45:30;8.27;;;5.95;;
9823;SDS011;4951;50.778;7.196;2023-06-24T10:48:29;22.05;;;8.75;;
9823;SDS011;4951;50.778;7.196;2023-06-24T11:13:42;6.88;;;5.90;;
9823;SDS011;4951;50.778;7.196;2023-06-24T11:17:41;6.40;;;5.80;;
9823;SDS011;4951;50.778;7.196;2023-06-24T11:19:46;6.57;;;5.30;;
9823;SDS011;4951;50.778;7.196;2023-06-24T11:23:13;7.65;;;6.25;;
9823;SDS011;4951;50.778;7.196;2023-06-24T11:30:44;19.80;;;6.03;;
9823;SDS011;4951;50.778;7.196;2023-06-24T11:33:56;11.18;;;5.55;;
9823;SDS011;4951;50.778;7.196;2023-06-24T11:41:43;4.85;;;4.45;;
9823;SDS011;4951;50.778;7.196;2023-06-24T11:44:44;6.15;;;5.55;;
9823;SDS011;4951;50.778;7.196;2023-06-24T11:52:24;8.88;;;5.38;;
9823;SDS011;4951;50.778;7.196;2023-06-24T12:03:01;4.93;;;4.47;;
9823;SDS011;4951;50.778;7.196;2023-06-24T12:17:10;5.00;;;4.55;;
9823;SDS011;4951;50.778;7.196;2023-06-24T12:20:55;4.28;;;3.88;;
9823;SDS011;4951;50.778;7.196;2023-06-24T12:24:01;4.95;;;4.47;;
9823;SDS011;4951;50.778;7.196;2023-06-24T12:30:00;4.63;;;4.22;;
9823;SDS011;4951;50.778;7.196;2023-06-24T12:37:02;10.23;;;4.30;;
9823;SDS011;4951;50.778;7.196;2023-06-24T12:43:56;5.78;;;4.05;;
9823;SDS011;4951;50.778;7.196;2023-06-24T12:50:07;4.18;;;3.85;;
9823;SDS011;4951;50.778;7.196;2023-06-24T12:52:47;5.80;;;4.18;;
9823;SDS011;4951;50.778;7.196;2023-06-24T12:59:13;4.88;;;4.38;;
9823;SDS011;4951;50.778;7.196;2023-06-24T13:05:20;4.38;;;3.78;;
9823;SDS011;4951;50.778;7.196;2023-06-24T13:08:21;7.75;;;4.22;;
9823;SDS011;4951;50.778;7.196;2023-06-24T13:11:18;5.75;;;4.20;;
9823;SDS011;4951;50.778;7.196;2023-06-24T13:15:17;5.40;;;4.20;;
9823;SDS011;4951;50.778;7.196;2023-06-24T13:17:58;5.30;;;4.47;;
9823;SDS011;4951;50.778;7.196;2023-06-24T13:20:30;5.00;;;4.18;;
9823;SDS011;4951;50.778;7.196;2023-06-24T13:23:09;4.90;;;4.05;;
9823;SDS011;4951;50.778;7.196;2023-06-24T13:26:30;4.47;;;4.07;;
9823;SDS011;4951;50.778;7.196;2023-06-24T13:29:46;4.68;;;4.28;;
9823;SDS011;4951;50.778;7.196;2023-06-24T13:32:50;4.35;;;3.97;;
9823;SDS011;4951;50.778;7.196;2023-06-24T13:39:33;6.75;;;4.22;;
9823;SDS011;4951;50.778;7.196;2023-06-24T13:42:02;4.13;;;3.83;;
9823;SDS011;4951;50.778;7.196;2023-06-24T13:44:47;4.68;;;4.28;;
9823;SDS011;4951;50.778;7.196;2023-06-24T13:47:21;6.43;;;4.18;;
9823;SDS011;4951;50.778;7.196;2023-06-24T13:50:36;4.43;;;4.00;;
9823;SDS011;4951;50.778;7.196;2023-06-24T13:54:10;5.28;;;3.97;;
9823;SDS011;4951;50.778;7.196;2023-06-24T13:56:51;5.13;;;4.13;;
9823;SDS011;4951;50.778;7.196;2023-06-24T14:00:02;4.00;;;3.60;;
9823;SDS011;4951;50.778;7.196;2023-06-24T14:02:39;5.13;;;4.03;;
9823;SDS011;4951;50.778;7.196;2023-06-24T14:05:29;4.47;;;4.07;;
9823;SDS011;4951;50.778;7.196;2023-06-24T14:08:58;5.32;;;4.32;;
9823;SDS011;4951;50.778;7.196;2023-06-24T14:11:56;4.00;;;3.70;;
9823;SDS011;4951;50.778;7.196;2023-06-24T14:15:11;4.82;;;4.35;;
9823;SDS011;4951;50.778;7.196;2023-06-24T14:18:08;4.15;;;3.63;;
9823;SDS011;4951;50.778;7.196;2023-06-24T14:21:34;4.45;;;4.05;;
9823;SDS011;4951;50.778;7.196;2023-06-24T14:28:21;4.53;;;4.13;;
9823;SDS011;4951;50.778;7.196;2023-06-24T14:34:37;4.70;;;4.30;;
9823;SDS011;4951;50.778;7.196;2023-06-24T14:37:38;4.40;;;4.00;;
9823;SDS011;4951;50.778;7.196;2023-06-24T14:40:11;4.20;;;3.65;;
9823;SDS011;4951;50.778;7.196;2023-06-24T14:42:39;6.28;;;3.80;;
9823;SDS011;4951;50.778;7.196;2023-06-24T14:45:08;4.22;;;3.88;;
9823;SDS011;4951;50.778;7.196;2023-06-24T14:51:20;4.30;;;3.90;;
9823;SDS011;4951;50.778;7.196;2023-06-24T14:53:50;5.75;;;4.55;;
9823;SDS011;4951;50.778;7.196;2023-06-24T14:56:20;4.40;;;4.00;;
9823;SDS011;4951;50.778;7.196;2023-06-24T14:58:49;4.68;;;4.10;;
9823;SDS011;4951;50.778;7.196;2023-06-24T15:01:32;4.45;;;4.05;;
9823;SDS011;4951;50.778;7.196;2023-06-24T15:04:09;4.60;;;3.97;;
9823;SDS011;4951;50.778;7.196;2023-06-24T15:06:44;4.63;;;4.18;;
9823;SDS011;4951;50.778;7.196;2023-06-24T15:09:43;4.20;;;3.90;;
9823;SDS011;4951;50.778;7.196;2023-06-24T15:12:10;4.72;;;4.22;;
9823;SDS011;4951;50.778;7.196;2023-06-24T15:14:37;4.18;;;3.88;;
9823;SDS011;4951;50.778;7.196;2023-06-24T15:17:08;4.38;;;4.03;;
9823;SDS011;4951;50.778;7.196;2023-06-24T15:19:40;4.70;;;4.20;;
9823;SDS011;4951;50.778;7.196;2023-06-24T15:22:13;4.88;;;4.38;;
9823;SDS011;4951;50.778;7.196;2023-06-24T15:24:41;4.25;;;3.85;;
9823;SDS011;4951;50.778;7.196;2023-06-24T15:27:11;6.03;;;4.72;;
9823;SDS011;4951;50.778;7.196;2023-06-24T15:29:50;4.35;;;3.95;;
9823;SDS011;4951;50.778;7.196;2023-06-24T15:35:16;4.72;;;4.28;;
9823;SDS011;4951;50.778;7.196;2023-06-24T15:37:43;4.93;;;4.53;;
9823;SDS011;4951;50.778;7.196;2023-06-24T15:40:14;4.40;;;4.10;;
9823;SDS011;4951;50.778;7.196;2023-06-24T15:42:46;4.20;;;3.90;;
9823;SDS011;4951;50.778;7.196;2023-06-24T15:45:13;5.18;;;3.88;;
9823;SDS011;4951;50.778;7.196;2023-06-24T15:47:59;4.53;;;4.13;;
9823;SDS011;4951;50.778;7.196;2023-06-24T15:50:27;4.93;;;4.25;;
9823;SDS011;4951;50.778;7.196;2023-06-24T15:53:00;4.22;;;3.92;;
9823;SDS011;4951;50.778;7.196;2023-06-24T15:55:27;4.22;;;3.83;;
9823;SDS011;4951;50.778;7.196;2023-06-24T15:57:54;5.35;;;4.00;;
9823;SDS011;4951;50.778;7.196;2023-06-24T16:00:26;4.03;;;3.58;;
9823;SDS011;4951;50.778;7.196;2023-06-24T16:06:12;4.30;;;3.87;;
9823;SDS011;4951;50.778;7.196;2023-06-24T16:08:55;4.95;;;4.45;;
9823;SDS011;4951;50.778;7.196;2023-06-24T16:11:23;4.35;;;3.90;;
9823;SDS011;4951;50.778;7.196;2023-06-24T16:13:56;4.55;;;3.80;;
9823;SDS011;4951;50.778;7.196;2023-06-24T16:16:29;5.32;;;4.18;;
9823;SDS011;4951;50.778;7.196;2023-06-24T16:18:56;4.78;;;4.30;;
9823;SDS011;4951;50.778;7.196;2023-06-24T16:21:36;6.18;;;3.90;;
9823;SDS011;4951;50.778;7.196;2023-06-24T16:24:04;5.60;;;4.05;;
9823;SDS011;4951;50.778;7.196;2023-06-24T16:26:56;4.68;;;3.60;;
9823;SDS011;4951;50.778;7.196;2023-06-24T16:29:23;4.55;;;4.15;;
9823;SDS011;4951;50.778;7.196;2023-06-24T16:32:03;3.80;;;3.47;;
9823;SDS011;4951;50.778;7.196;2023-06-24T16:34:30;4.80;;;4.35;;
9823;SDS011;4951;50.778;7.196;2023-06-24T16:36:59;4.07;;;3.67;;
9823;SDS011;4951;50.778;7.196;2023-06-24T16:42:18;4.03;;;3.42;;
9823;SDS011;4951;50.778;7.196;2023-06-24T16:44:53;5.50;;;4.20;;
9823;SDS011;4951;50.778;7.196;2023-06-24T16:47:20;11.13;;;9.23;;
9823;SDS011;4951;50.778;7.196;2023-06-24T16:49:48;4.55;;;4.15;;
9823;SDS011;4951;50.778;7.196;2023-06-24T16:52:30;4.32;;;3.92;;
9823;SDS011;4951;50.778;7.196;2023-06-24T16:54:57;4.22;;;3.80;;
9823;SDS011;4951;50.778;7.196;2023-06-24T16:57:28;6.03;;;4.30;;
9823;SDS011;4951;50.778;7.196;2023-06-24T16:59:56;5.85;;;3.92;;
9823;SDS011;4951;50.778;7.196;2023-06-24T17:02:23;4.47;;;3.70;;
9823;SDS011;4951;50.778;7.196;2023-06-24T17:04:54;4.07;;;3.78;;
9823;SDS011;4951;50.778;7.196;2023-06-24T17:07:21;4.03;;;3.70;;
9823;SDS011;4951;50.778;7.196;2023-06-24T17:09:50;4.30;;;3.90;;
9823;SDS011;4951;50.778;7.196;2023-06-24T17:12:17;5.50;;;4.22;;
9823;SDS011;4951;50.778;7.196;2023-06-24T17:15:13;3.83;;;3.53;;
9823;SDS011;4951;50.778;7.196;2023-06-24T17:17:40;3.83;;;3.42;;
9823;SDS011;4951;50.778;7.196;2023-06-24T17:20:12;6.00;;;4.10;;
9823;SDS011;4951;50.778;7.196;2023-06-24T17:22:47;6.32;;;3.80;;
9823;SDS011;4951;50.778;7.196;2023-06-24T17:25:16;6.22;;;4.03;;
9823;SDS011;4951;50.778;7.196;2023-06-24T17:27:44;4.05;;;3.60;;
9823;SDS011;4951;50.778;7.196;2023-06-24T17:30:14;4.38;;;3.70;;
9823;SDS011;4951;50.778;7.196;2023-06-24T17:32:43;4.57;;;4.05;;
9823;SDS011;4951;50.778;7.196;2023-06-24T17:35:20;4.30;;;3.90;;
9823;SDS011;4951;50.778;7.196;2023-06-24T17:37:48;4.80;;;3.78;;
9823;SDS011;4951;50.778;7.196;2023-06-24T17:40:36;4.20;;;3.80;;
9823;SDS011;4951;50.778;7.196;2023-06-24T17:43:03;4.72;;;4.20;;
9823;SDS011;4951;50.778;7.196;2023-06-24T17:45:47;5.03;;;3.95;;
9823;SDS011;4951;50.778;7.196;2023-06-24T17:48:14;5.65;;;3.78;;
9823;SDS011;4951;50.778;7.196;2023-06-24T17:50:42;4.93;;;4.25;;
9823;SDS011;4951;50.778;7.196;2023-06-24T17:53:14;4.45;;;3.72;;
9823;SDS011;4951;50.778;7.196;2023-06-24T17:58:48;4.22;;;3.83;;
9823;SDS011;4951;50.778;7.196;2023-06-24T18:01:15;4.75;;;3.67;;
9823;SDS011;4951;50.778;7.196;2023-06-24T18:03:47;4.18;;;3.78;;
9823;SDS011;4951;50.778;7.196;2023-06-24T18:06:16;4.50;;;4.10;;
9823;SDS011;4951;50.778;7.196;2023-06-24T18:08:45;4.47;;;4.00;;
9823;SDS011;4951;50.778;7.196;2023-06-24T18:11:14;6.63;;;4.15;;
9823;SDS011;4951;50.778;7.196;2023-06-24T18:13:44;3.95;;;3.65;;
9823;SDS011;4951;50.778;7.196;2023-06-24T18:16:15;4.22;;;3.83;;
9823;SDS011;4951;50.778;7.196;2023-06-24T18:18:42;4.75;;;3.58;;
9823;SDS011;4951;50.778;7.196;2023-06-24T18:21:13;4.85;;;3.92;;
9823;SDS011;4951;50.778;7.196;2023-06-24T18:23:43;4.07;;;3.63;;
9823;SDS011;4951;50.778;7.196;2023-06-24T18:26:11;3.88;;;3.53;;
9823;SDS011;4951;50.778;7.196;2023-06-24T18:28:43;4.43;;;3.97;;
9823;SDS011;4951;50.778;7.196;2023-06-24T18:31:11;4.25;;;3.85;;
9823;SDS011;4951;50.778;7.196;2023-06-24T18:33:38;4.53;;;4.05;;
9823;SDS011;4951;50.778;7.196;2023-06-24T18:36:06;4.47;;;4.07;;
9823;SDS011;4951;50.778;7.196;2023-06-24T18:38:33;4.20;;;3.80;;
9823;SDS011;4951;50.778;7.196;2023-06-24T18:41:00;3.90;;;3.50;;
9823;SDS011;4951;50.778;7.196;2023-06-24T18:43:29;4.45;;;3.90;;
9823;SDS011;4951;50.778;7.196;2023-06-24T18:45:56;4.22;;;3.47;;
9823;SDS011;4951;50.778;7.196;2023-06-24T18:48:30;4.43;;;3.83;;
9823;SDS011;4951;50.778;7.196;2023-06-24T18:51:05;4.55;;;3.85;;
9823;SDS011;4951;50.778;7.196;2023-06-24T18:53:39;3.60;;;3.30;;
9823;SDS011;4951;50.778;7.196;2023-06-24T18:56:08;6.03;;;4.13;;
9823;SDS011;4951;50.778;7.196;2023-06-24T18:58:58;5.05;;;3.92;;
9823;SDS011;4951;50.778;7.196;2023-06-24T19:02:17;4.63;;;4.13;;
9823;SDS011;4951;50.778;7.196;2023-06-24T19:04:46;4.30;;;3.83;;
9823;SDS011;4951;50.778;7.196;2023-06-24T19:07:13;4.38;;;3.58;;
9823;SDS011;4951;50.778;7.196;2023-06-24T19:09:44;4.05;;;3.65;;
9823;SDS011;4951;50.778;7.196;2023-06-24T19:12:39;4.55;;;4.10;;
9823;SDS011;4951;50.778;7.196;2023-06-24T19:15:36;3.92;;;3.63;;
9823;SDS011;4951;50.778;7.196;2023-06-24T19:18:29;7.03;;;6.32;;
9823;SDS011;4951;50.778;7.196;2023-06-24T19:21:23;5.72;;;5.13;;
9823;SDS011;4951;50.778;7.196;2023-06-24T19:24:05;4.50;;;3.90;;
9823;SDS011;4951;50.778;7.196;2023-06-24T19:26:32;5.40;;;4.20;;
9823;SDS011;4951;50.778;7.196;2023-06-24T19:29:00;4.30;;;3.90;;
9823;SDS011;4951;50.778;7.196;2023-06-24T19:31:28;5.03;;;4.28;;
9823;SDS011;4951;50.778;7.196;2023-06-24T19:33:56;4.28;;;3.80;;
9823;SDS011;4951;50.778;7.196;2023-06-24T19:36:24;4.50;;;4.10;;
9823;SDS011;4951;50.778;7.196;2023-06-24T19:38:54;5.13;;;3.75;;
9823;SDS011;4951;50.778;7.196;2023-06-24T19:41:21;4.00;;;3.60;;
9823;SDS011;4951;50.778;7.196;2023-06-24T19:44:01;4.25;;;3.85;;
9823;SDS011;4951;50.778;7.196;2023-06-24T19:46:32;4.32;;;3.92;;
9823;SDS011;4951;50.778;7.196;2023-06-24T19:49:01;4.32;;;3.92;;
9823;SDS011;4951;50.778;7.196;2023-06-24T19:51:29;4.53;;;3.95;;
9823;SDS011;4951;50.778;7.196;2023-06-24T19:53:56;4.18;;;3.63;;
9823;SDS011;4951;50.778;7.196;2023-06-24T19:56:27;4.70;;;4.10;;
9823;SDS011;4951;50.778;7.196;2023-06-24T19:58:57;5.50;;;4.28;;
9823;SDS011;4951;50.778;7.196;2023-06-24T20:01:35;5.25;;;4.78;;
9823;SDS011;4951;50.778;7.196;2023-06-24T20:07:04;6.00;;;5.20;;
9823;SDS011;4951;50.778;7.196;2023-06-24T20:09:37;5.72;;;4.63;;
9823;SDS011;4951;50.778;7.196;2023-06-24T20:12:30;4.60;;;4.20;;
9823;SDS011;4951;50.778;7.196;2023-06-24T20:15:38;4.18;;;3.78;;
9823;SDS011;4951;50.778;7.196;2023-06-24T20:25:17;5.10;;;3.80;;
9823;SDS011;4951;50.778;7.196;2023-06-24T20:31:23;5.90;;;4.35;;
9823;SDS011;4951;50.778;7.196;2023-06-24T20:36:50;5.35;;;4.45;;
9823;SDS011;4951;50.778;7.196;2023-06-24T20:39:17;5.20;;;4.72;;
9823;SDS011;4951;50.778;7.196;2023-06-24T20:41:58;5.40;;;4.72;;
9823;SDS011;4951;50.778;7.196;2023-06-24T20:44:27;5.35;;;4.85;;
9823;SDS011;4951;50.778;7.196;2023-06-24T20:46:58;5.70;;;4.47;;